createdAt,value
2022-09-02T00:00:04.863Z,0.00
2022-09-02T00:01:04.853Z,0.00
2022-09-02T00:02:04.956Z,0.00
2022-09-02T00:03:04.992Z,0.00
2022-09-02T00:04:04.839Z,0.00
2022-09-02T00:05:04.816Z,0.00
2022-09-02T00:06:04.841Z,0.00
2022-09-02T00:07:04.809Z,0.00
2022-09-02T00:08:05.277Z,0.00
2022-09-02T00:09:04.794Z,0.00
2022-09-02T00:10:04.774Z,0.00
2022-09-02T00:11:04.743Z,0.00
2022-09-02T00:12:04.748Z,0.00
2022-09-02T00:13:04.738Z,0.00
2022-09-02T00:14:04.695Z,0.00
2022-09-02T00:15:04.689Z,0.00
2022-09-02T00:16:04.724Z,0.00
2022-09-02T00:17:04.665Z,0.00
2022-09-02T00:18:04.671Z,0.00
2022-09-02T00:19:04.664Z,0.00
2022-09-02T00:20:04.633Z,0.00
2022-09-02T00:21:04.647Z,0.00
2022-09-02T00:22:04.624Z,0.00
2022-09-02T00:23:04.616Z,0.00
2022-09-02T00:24:04.588Z,0.00
2022-09-02T00:25:04.591Z,0.00
2022-09-02T00:26:04.601Z,0.00
2022-09-02T00:27:04.596Z,0.00
2022-09-02T00:28:04.724Z,0.00
2022-09-02T00:29:04.527Z,0.00
2022-09-02T00:30:04.517Z,0.00
2022-09-02T00:31:04.540Z,0.00
2022-09-02T00:32:04.586Z,0.00
2022-09-02T00:33:04.528Z,0.00
2022-09-02T00:34:04.510Z,0.00
2022-09-02T00:35:04.469Z,0.00
2022-09-02T00:36:04.480Z,0.00
2022-09-02T00:37:04.469Z,0.00
2022-09-02T00:38:04.489Z,0.00
2022-09-02T00:39:04.428Z,0.00
2022-09-02T00:40:04.483Z,0.00
2022-09-02T00:41:04.409Z,0.00
2022-09-02T00:42:04.401Z,0.00
2022-09-02T00:43:04.429Z,0.00
2022-09-02T00:44:04.357Z,0.00
2022-09-02T00:45:04.378Z,0.00
2022-09-02T00:46:04.463Z,0.00
2022-09-02T00:47:04.343Z,0.00
2022-09-02T00:48:04.353Z,0.00
2022-09-02T00:49:04.305Z,0.00
2022-09-02T00:50:04.329Z,0.00
2022-09-02T00:51:04.303Z,0.00
2022-09-02T00:52:04.276Z,0.00
2022-09-02T00:53:04.293Z,0.00
2022-09-02T00:54:04.264Z,0.00
2022-09-02T00:55:04.292Z,0.00
2022-09-02T00:56:04.244Z,0.00
2022-09-02T00:57:04.219Z,0.00
2022-09-02T00:58:04.238Z,0.00
2022-09-02T00:59:04.203Z,0.00
2022-09-02T01:00:04.180Z,0.00
2022-09-02T01:01:04.261Z,0.00
2022-09-02T01:02:04.345Z,0.00
2022-09-02T01:03:04.176Z,0.00
2022-09-02T01:04:04.167Z,0.00
2022-09-02T01:05:04.133Z,0.00
2022-09-02T01:06:04.104Z,0.00
2022-09-02T01:07:04.109Z,0.00
2022-09-02T01:08:04.103Z,0.00
2022-09-02T01:09:04.073Z,0.00
2022-09-02T01:10:04.084Z,0.00
2022-09-02T01:11:04.052Z,0.00
2022-09-02T01:12:04.067Z,0.00
2022-09-02T01:13:04.077Z,0.00
2022-09-02T01:14:04.050Z,0.00
2022-09-02T01:15:04.020Z,0.00
2022-09-02T01:16:04.105Z,0.00
2022-09-02T01:17:04.048Z,0.00
2022-09-02T01:18:04.024Z,0.00
2022-09-02T01:19:03.970Z,0.00
2022-09-02T01:20:03.977Z,0.00
2022-09-02T01:21:03.956Z,0.00
2022-09-02T01:22:03.994Z,0.00
2022-09-02T01:23:03.948Z,0.00
2022-09-02T01:24:03.913Z,0.00
2022-09-02T01:25:03.945Z,0.00
2022-09-02T01:26:03.910Z,0.00
2022-09-02T01:27:03.903Z,0.00
2022-09-02T01:28:03.884Z,0.00
2022-09-02T01:29:03.866Z,0.00
2022-09-02T01:30:03.852Z,0.00
2022-09-02T01:31:03.938Z,0.00
2022-09-02T01:32:03.832Z,0.00
2022-09-02T01:33:03.845Z,0.00
2022-09-02T01:34:03.858Z,0.00
2022-09-02T01:35:03.808Z,0.00
2022-09-02T01:36:03.795Z,0.00
2022-09-02T01:37:03.798Z,0.00
2022-09-02T01:38:04.870Z,0.00
2022-09-02T01:39:03.761Z,0.00
2022-09-02T01:40:03.839Z,0.00
2022-09-02T01:41:03.726Z,0.00
2022-09-02T01:42:03.716Z,0.00
2022-09-02T01:43:03.717Z,0.00
2022-09-02T01:44:03.697Z,0.00
2022-09-02T01:45:03.674Z,0.00
2022-09-02T01:46:03.659Z,0.00
2022-09-02T01:47:03.740Z,0.00
2022-09-02T01:48:03.685Z,0.00
2022-09-02T01:49:03.630Z,0.00
2022-09-02T01:50:03.616Z,0.00
2022-09-02T01:51:03.615Z,0.00
2022-09-02T01:52:03.609Z,0.00
2022-09-02T01:53:03.607Z,0.00
2022-09-02T01:54:03.574Z,0.00
2022-09-02T01:55:03.579Z,0.00
2022-09-02T01:56:03.557Z,0.00
2022-09-02T01:57:03.547Z,0.00
2022-09-02T01:58:03.554Z,0.00
2022-09-02T01:59:03.541Z,0.00
2022-09-02T02:00:03.500Z,0.00
2022-09-02T02:01:03.610Z,0.00
2022-09-02T02:02:03.561Z,0.00
2022-09-02T02:03:03.490Z,0.00
2022-09-02T02:04:03.468Z,0.00
2022-09-02T02:05:03.460Z,0.00
2022-09-02T02:06:03.449Z,0.00
2022-09-02T02:07:03.448Z,0.00
2022-09-02T02:08:03.458Z,0.00
2022-09-02T02:09:03.408Z,0.00
2022-09-02T02:10:03.400Z,0.00
2022-09-02T02:11:03.393Z,0.00
2022-09-02T02:12:03.387Z,0.00
2022-09-02T02:13:03.410Z,0.00
2022-09-02T02:14:03.362Z,0.00
2022-09-02T02:15:03.385Z,0.00
2022-09-02T02:16:03.398Z,0.00
2022-09-02T02:17:03.351Z,0.00
2022-09-02T02:18:03.331Z,0.00
2022-09-02T02:19:03.335Z,0.00
2022-09-02T02:20:03.307Z,0.00
2022-09-02T02:21:03.299Z,0.00
2022-09-02T02:22:03.325Z,0.00
2022-09-02T02:23:03.328Z,0.00
2022-09-02T02:24:03.281Z,0.00
2022-09-02T02:25:03.338Z,0.00
2022-09-02T02:26:03.257Z,0.00
2022-09-02T02:27:03.225Z,0.00
2022-09-02T02:28:03.233Z,0.00
2022-09-02T02:29:03.238Z,0.00
2022-09-02T02:30:03.191Z,0.00
2022-09-02T02:31:03.192Z,0.00
2022-09-02T02:32:03.188Z,0.00
2022-09-02T02:33:03.161Z,0.00
2022-09-02T02:34:03.204Z,0.00
2022-09-02T02:35:03.146Z,0.00
2022-09-02T02:36:03.123Z,0.00
2022-09-02T02:37:03.154Z,0.00
2022-09-02T02:38:03.759Z,0.00
2022-09-02T02:39:03.142Z,0.00
2022-09-02T02:40:03.073Z,0.00
2022-09-02T02:41:03.065Z,0.00
2022-09-02T02:42:03.082Z,0.00
2022-09-02T02:43:03.051Z,0.00
2022-09-02T02:44:03.040Z,0.00
2022-09-02T02:45:03.017Z,0.00
2022-09-02T02:46:03.012Z,0.00
2022-09-02T02:47:03.088Z,0.00
2022-09-02T02:48:03.014Z,0.00
2022-09-02T02:49:03.002Z,0.00
2022-09-02T02:50:02.963Z,0.00
2022-09-02T02:51:02.971Z,0.00
2022-09-02T02:52:02.936Z,0.00
2022-09-02T02:53:02.961Z,0.00
2022-09-02T02:54:02.940Z,0.00
2022-09-02T02:55:02.925Z,0.00
2022-09-02T02:56:02.910Z,0.00
2022-09-02T02:57:03.098Z,0.00
2022-09-02T02:58:02.878Z,0.00
2022-09-02T02:59:02.871Z,0.00
2022-09-02T03:00:02.861Z,0.00
2022-09-02T03:01:02.839Z,0.00
2022-09-02T03:02:02.978Z,0.00
2022-09-02T03:03:02.845Z,0.00
2022-09-02T03:04:02.824Z,0.00
2022-09-02T03:05:02.804Z,0.00
2022-09-02T03:06:02.818Z,0.00
2022-09-02T03:07:02.795Z,0.00
2022-09-02T03:08:02.778Z,0.00
2022-09-02T03:09:02.777Z,0.00
2022-09-02T03:10:02.738Z,0.00
2022-09-02T03:11:02.741Z,0.00
2022-09-02T03:12:02.711Z,0.00
2022-09-02T03:13:02.711Z,0.00
2022-09-02T03:14:02.732Z,0.00
2022-09-02T03:15:02.682Z,0.00
2022-09-02T03:16:02.736Z,0.00
2022-09-02T03:17:02.686Z,0.00
2022-09-02T03:18:02.652Z,0.00
2022-09-02T03:19:02.659Z,0.00
2022-09-02T03:20:02.646Z,0.00
2022-09-02T03:21:02.635Z,0.00
2022-09-02T03:22:02.623Z,0.00
2022-09-02T03:23:02.600Z,0.00
2022-09-02T03:24:02.636Z,0.00
2022-09-02T03:25:02.576Z,0.00
2022-09-02T03:26:02.578Z,0.00
2022-09-02T03:27:02.565Z,0.00
2022-09-02T03:28:02.570Z,0.00
2022-09-02T03:29:02.547Z,0.00
2022-09-02T03:30:02.548Z,0.00
2022-09-02T03:31:02.536Z,0.00
2022-09-02T03:32:03.000Z,0.00
2022-09-02T03:33:04.328Z,0.00
2022-09-02T03:34:02.508Z,0.00
2022-09-02T03:35:02.459Z,0.00
2022-09-02T03:36:02.472Z,0.00
2022-09-02T03:37:02.462Z,0.00
2022-09-02T03:38:02.431Z,0.00
2022-09-02T03:39:02.468Z,0.00
2022-09-02T03:40:02.460Z,0.00
2022-09-02T03:41:02.434Z,0.00
2022-09-02T03:42:02.369Z,0.00
2022-09-02T03:43:02.394Z,0.00
2022-09-02T03:44:02.403Z,0.00
2022-09-02T03:45:02.380Z,0.00
2022-09-02T03:46:02.463Z,0.00
2022-09-02T03:47:02.331Z,0.00
2022-09-02T03:48:02.323Z,0.00
2022-09-02T03:49:02.353Z,0.00
2022-09-02T03:50:02.308Z,0.00
2022-09-02T03:51:02.299Z,0.00
2022-09-02T03:52:02.284Z,0.00
2022-09-02T03:53:02.261Z,0.00
2022-09-02T03:54:02.266Z,0.00
2022-09-02T03:55:02.255Z,0.00
2022-09-02T03:56:02.239Z,0.00
2022-09-02T03:57:02.228Z,0.00
2022-09-02T03:58:06.560Z,0.00
2022-09-02T03:59:02.224Z,0.00
2022-09-02T04:00:02.220Z,4.00
2022-09-02T04:01:02.161Z,4.00
2022-09-02T04:02:02.292Z,0.00
2022-09-02T04:03:02.172Z,4.00
2022-09-02T04:04:02.158Z,4.00
2022-09-02T04:05:02.167Z,4.00
2022-09-02T04:06:02.113Z,4.00
2022-09-02T04:07:02.101Z,4.00
2022-09-02T04:08:02.122Z,4.00
2022-09-02T04:09:02.092Z,8.00
2022-09-02T04:10:02.067Z,8.00
2022-09-02T04:11:02.095Z,8.00
2022-09-02T04:12:02.087Z,12.00
2022-09-02T04:13:02.054Z,12.00
2022-09-02T04:14:02.063Z,16.00
2022-09-02T04:15:02.028Z,16.00
2022-09-02T04:16:02.265Z,16.00
2022-09-02T04:17:02.015Z,20.00
2022-09-02T04:18:01.988Z,24.00
2022-09-02T04:19:02.051Z,28.00
2022-09-02T04:20:01.989Z,32.00
2022-09-02T04:21:01.968Z,36.00
2022-09-02T04:22:01.927Z,44.00
2022-09-02T04:23:01.980Z,48.00
2022-09-02T04:24:01.924Z,56.00
2022-09-02T04:25:01.941Z,60.00
2022-09-02T04:26:01.882Z,72.00
2022-09-02T04:27:04.191Z,76.00
2022-09-02T04:28:01.881Z,88.00
2022-09-02T04:29:01.937Z,96.00
2022-09-02T04:30:01.826Z,108.00
2022-09-02T04:31:01.881Z,116.00
2022-09-02T04:32:01.802Z,132.00
2022-09-02T04:33:01.801Z,140.00
2022-09-02T04:34:01.799Z,152.00
2022-09-02T04:35:01.807Z,164.00
2022-09-02T04:36:01.786Z,180.00
2022-09-02T04:37:01.760Z,192.00
2022-09-02T04:38:01.808Z,208.00
2022-09-02T04:39:01.790Z,220.00
2022-09-02T04:40:01.758Z,236.00
2022-09-02T04:41:01.721Z,256.00
2022-09-02T04:42:08.262Z,268.00
2022-09-02T04:43:01.690Z,284.00
2022-09-02T04:44:01.690Z,304.00
2022-09-02T04:45:01.665Z,316.00
2022-09-02T04:46:01.701Z,332.00
2022-09-02T04:47:01.645Z,348.00
2022-09-02T04:48:01.625Z,368.00
2022-09-02T04:49:01.629Z,384.00
2022-09-02T04:50:01.617Z,400.00
2022-09-02T04:51:01.592Z,420.00
2022-09-02T04:52:01.575Z,440.00
2022-09-02T04:53:01.567Z,456.00
2022-09-02T04:54:01.584Z,476.00
2022-09-02T04:55:01.553Z,504.00
2022-09-02T04:56:01.539Z,528.00
2022-09-02T04:57:01.517Z,544.00
2022-09-02T04:58:01.549Z,564.00
2022-09-02T04:59:01.536Z,580.00
2022-09-02T05:00:01.479Z,600.00
2022-09-02T05:01:01.477Z,616.00
2022-09-02T05:02:01.556Z,636.00
2022-09-02T05:03:01.597Z,652.00
2022-09-02T05:04:01.460Z,668.00
2022-09-02T05:05:01.430Z,680.00
2022-09-02T05:06:01.448Z,688.00
2022-09-02T05:07:01.410Z,700.00
2022-09-02T05:08:01.399Z,708.00
2022-09-02T05:09:01.421Z,716.00
2022-09-02T05:10:01.378Z,728.00
2022-09-02T05:11:01.397Z,736.00
2022-09-02T05:12:01.365Z,748.00
2022-09-02T05:13:01.352Z,756.00
2022-09-02T05:14:01.346Z,768.00
2022-09-02T05:15:01.342Z,776.00
2022-09-02T05:16:01.414Z,784.00
2022-09-02T05:17:06.666Z,792.00
2022-09-02T05:18:01.294Z,804.00
2022-09-02T05:19:01.293Z,812.00
2022-09-02T05:20:01.270Z,824.00
2022-09-02T05:21:01.258Z,832.00
2022-09-02T05:22:01.250Z,844.00
2022-09-02T05:23:01.231Z,852.00
2022-09-02T05:24:01.233Z,864.00
2022-09-02T05:25:01.226Z,868.00
2022-09-02T05:26:01.198Z,876.00
2022-09-02T05:27:01.186Z,888.00
2022-09-02T05:28:01.172Z,896.00
2022-09-02T05:29:01.175Z,908.00
2022-09-02T05:30:01.154Z,920.00
2022-09-02T05:31:01.189Z,928.00
2022-09-02T05:32:01.119Z,936.00
2022-09-02T05:33:01.121Z,944.00
2022-09-02T05:34:01.114Z,952.00
2022-09-02T05:35:01.108Z,960.00
2022-09-02T05:36:01.083Z,968.00
2022-09-02T05:37:01.077Z,976.00
2022-09-02T05:38:01.347Z,980.00
2022-09-02T05:39:01.065Z,988.00
2022-09-02T05:40:01.430Z,996.00
2022-09-02T05:41:01.038Z,1000.00
2022-09-02T05:42:01.004Z,1008.00
2022-09-02T05:43:01.002Z,1012.00
2022-09-02T05:44:01.437Z,1020.00
2022-09-02T05:45:00.977Z,1028.00
2022-09-02T05:46:01.037Z,1032.00
2022-09-02T05:47:00.960Z,1040.00
2022-09-02T05:48:00.943Z,1048.00
2022-09-02T05:49:00.954Z,1056.00
2022-09-02T05:50:00.920Z,1068.00
2022-09-02T05:51:00.915Z,1080.00
2022-09-02T05:52:00.901Z,1088.00
2022-09-02T05:53:00.892Z,1100.00
2022-09-02T05:54:00.905Z,1104.00
2022-09-02T05:55:00.866Z,1112.00
2022-09-02T05:56:00.852Z,1120.00
2022-09-02T05:57:00.859Z,1128.00
2022-09-02T05:58:00.832Z,1132.00
2022-09-02T05:59:00.890Z,1136.00
2022-09-02T06:00:00.801Z,1144.00
2022-09-02T06:01:00.820Z,1148.00
2022-09-02T06:02:01.000Z,1152.00
2022-09-02T06:03:00.855Z,1156.00
2022-09-02T06:04:00.791Z,1160.00
2022-09-02T06:05:00.764Z,1164.00
2022-09-02T06:06:06.467Z,1168.00
2022-09-02T06:07:00.739Z,1172.00
2022-09-02T06:08:00.711Z,1180.00
2022-09-02T06:09:00.721Z,1188.00
2022-09-02T06:10:00.701Z,1196.00
2022-09-02T06:11:00.693Z,1200.00
2022-09-02T06:12:00.669Z,1208.00
2022-09-02T06:13:00.670Z,1212.00
2022-09-02T06:14:00.644Z,1220.00
2022-09-02T06:15:00.657Z,1224.00
2022-09-02T06:16:00.691Z,1232.00
2022-09-02T06:17:00.638Z,1240.00
2022-09-02T06:18:00.599Z,1248.00
2022-09-02T06:19:00.589Z,1256.00
2022-09-02T06:20:00.594Z,1256.00
2022-09-02T06:21:00.570Z,1264.00
2022-09-02T06:22:00.549Z,1280.00
2022-09-02T06:23:00.559Z,1280.00
2022-09-02T06:24:00.572Z,1276.00
2022-09-02T06:25:00.543Z,1280.00
2022-09-02T06:26:00.510Z,1288.00
2022-09-02T06:27:00.499Z,1304.00
2022-09-02T06:28:04.032Z,1316.00
2022-09-02T06:29:00.512Z,1328.00
2022-09-02T06:30:00.491Z,1328.00
2022-09-02T06:31:00.526Z,1324.00
2022-09-02T06:32:00.453Z,1316.00
2022-09-02T06:33:00.436Z,1320.00
2022-09-02T06:34:00.425Z,1328.00
2022-09-02T06:35:00.464Z,1336.00
2022-09-02T06:36:00.406Z,1344.00
2022-09-02T06:37:00.390Z,1360.00
2022-09-02T06:38:00.383Z,1380.00
2022-09-02T06:39:00.367Z,1404.00
2022-09-02T06:40:00.384Z,1432.00
2022-09-02T06:41:00.355Z,1440.00
2022-09-02T06:42:00.374Z,1436.00
2022-09-02T06:43:00.326Z,1420.00
2022-09-02T06:44:00.339Z,1404.00
2022-09-02T06:45:00.318Z,1408.00
2022-09-02T06:46:00.335Z,1412.00
2022-09-02T06:47:00.281Z,1420.00
2022-09-02T06:48:00.274Z,1436.00
2022-09-02T06:49:00.258Z,1448.00
2022-09-02T06:50:00.266Z,1456.00
2022-09-02T06:51:00.235Z,1452.00
2022-09-02T06:52:00.221Z,1440.00
2022-09-02T06:53:00.219Z,1432.00
2022-09-02T06:54:00.735Z,1432.00
2022-09-02T06:55:00.213Z,1448.00
2022-09-02T06:56:00.196Z,1468.00
2022-09-02T06:57:00.184Z,1484.00
2022-09-02T06:58:00.164Z,1496.00
2022-09-02T06:59:00.149Z,1504.00
2022-09-02T07:00:02.496Z,1504.00
2022-09-02T07:01:00.205Z,1512.00
2022-09-02T07:02:00.381Z,1516.00
2022-09-02T07:03:00.116Z,1516.00
2022-09-02T07:04:00.107Z,1536.00
2022-09-02T07:05:00.106Z,1556.00
2022-09-02T07:06:00.072Z,1576.00
2022-09-02T07:07:00.074Z,1604.00
2022-09-02T07:08:00.053Z,1628.00
2022-09-02T07:09:00.050Z,1652.00
2022-09-02T07:10:00.033Z,1672.00
2022-09-02T07:11:00.011Z,1700.00
2022-09-02T07:12:04.375Z,1728.00
2022-09-02T07:13:00.019Z,1760.00
2022-09-02T07:13:59.968Z,1800.00
2022-09-02T07:14:59.995Z,1868.00
2022-09-02T07:15:59.960Z,1920.00
2022-09-02T07:17:00.081Z,2020.00
2022-09-02T07:17:59.939Z,2100.00
2022-09-02T07:18:59.929Z,2244.00
2022-09-02T07:19:59.924Z,2360.00
2022-09-02T07:20:59.905Z,2472.00
2022-09-02T07:21:59.883Z,2568.00
2022-09-02T07:22:59.883Z,2628.00
2022-09-02T07:23:59.870Z,2668.00
2022-09-02T07:24:59.869Z,2700.00
2022-09-02T07:25:59.847Z,2724.00
2022-09-02T07:26:59.841Z,2732.00
2022-09-02T07:27:59.827Z,2708.00
2022-09-02T07:28:59.818Z,2668.00
2022-09-02T07:29:59.818Z,2604.00
2022-09-02T07:31:00.132Z,2536.00
2022-09-02T07:31:59.782Z,2476.00
2022-09-02T07:32:59.768Z,2424.00
2022-09-02T07:33:59.764Z,2392.00
2022-09-02T07:34:59.779Z,2352.00
2022-09-02T07:35:59.737Z,2324.00
2022-09-02T07:37:04.110Z,2284.00
2022-09-02T07:37:59.721Z,2220.00
2022-09-02T07:38:59.705Z,2164.00
2022-09-02T07:39:59.726Z,2108.00
2022-09-02T07:40:59.713Z,2088.00
2022-09-02T07:41:59.668Z,2048.00
2022-09-02T07:42:59.683Z,1992.00
2022-09-02T07:44:00.002Z,1940.00
2022-09-02T07:44:59.657Z,1904.00
2022-09-02T07:45:59.681Z,1868.00
2022-09-02T07:46:59.615Z,1816.00
2022-09-02T07:47:59.632Z,1784.00
2022-09-02T07:48:59.596Z,1764.00
2022-09-02T07:50:18.343Z,1744.00
2022-09-02T07:50:59.588Z,1720.00
2022-09-02T07:51:59.612Z,1720.00
2022-09-02T07:52:59.546Z,1740.00
2022-09-02T07:53:59.549Z,1744.00
2022-09-02T07:54:59.589Z,1764.00
2022-09-02T07:55:59.514Z,1788.00
2022-09-02T07:56:59.500Z,1812.00
2022-09-02T07:57:59.511Z,1840.00
2022-09-02T07:58:59.506Z,1872.00
2022-09-02T07:59:59.509Z,1904.00
2022-09-02T08:00:59.527Z,1932.00
2022-09-02T08:01:59.527Z,1968.00
2022-09-02T08:02:59.605Z,2028.00
2022-09-02T08:04:01.549Z,2068.00
2022-09-02T08:04:59.435Z,2148.00
2022-09-02T08:05:59.404Z,2244.00
2022-09-02T08:06:59.410Z,2348.00
2022-09-02T08:07:59.390Z,2432.00
2022-09-02T08:08:59.438Z,2552.00
2022-09-02T08:09:59.425Z,2768.00
2022-09-02T08:10:59.387Z,2888.00
2022-09-02T08:11:59.343Z,2988.00
2022-09-02T08:12:59.349Z,3112.00
2022-09-02T08:13:59.318Z,3184.00
2022-09-02T08:14:59.324Z,3284.00
2022-09-02T08:15:59.304Z,3352.00
2022-09-02T08:16:59.369Z,3420.00
2022-09-02T08:17:59.331Z,3472.00
2022-09-02T08:18:59.264Z,3516.00
2022-09-02T08:19:59.273Z,3580.00
2022-09-02T08:20:59.232Z,3624.00
2022-09-02T08:21:59.228Z,3648.00
2022-09-02T08:23:10.832Z,3692.00
2022-09-02T08:23:59.202Z,3732.00
2022-09-02T08:24:59.211Z,3748.00
2022-09-02T08:25:59.186Z,3776.00
2022-09-02T08:26:59.168Z,3784.00
2022-09-02T08:27:59.208Z,3808.00
2022-09-02T08:28:59.138Z,3824.00
2022-09-02T08:29:59.169Z,3832.00
2022-09-02T08:30:59.147Z,3844.00
2022-09-02T08:31:59.186Z,3856.00
2022-09-02T08:32:59.104Z,3864.00
2022-09-02T08:33:59.121Z,3872.00
2022-09-02T08:34:59.136Z,3868.00
2022-09-02T08:35:59.119Z,3864.00
2022-09-02T08:36:59.057Z,3868.00
2022-09-02T08:37:59.331Z,3860.00
2022-09-02T08:38:59.036Z,3860.00
2022-09-02T08:39:59.109Z,3856.00
2022-09-02T08:40:59.011Z,3836.00
2022-09-02T08:42:57.989Z,3812.00
2022-09-02T08:43:58.986Z,3792.00
2022-09-02T08:44:59.043Z,3772.00
2022-09-02T08:45:59.045Z,3764.00
2022-09-02T08:46:58.986Z,3744.00
2022-09-02T08:47:58.945Z,3724.00
2022-09-02T08:48:59.003Z,3704.00
2022-09-02T08:49:58.921Z,3684.00
2022-09-02T08:50:58.941Z,3676.00
2022-09-02T08:52:00.805Z,3640.00
2022-09-02T08:52:58.883Z,3624.00
2022-09-02T08:53:58.897Z,3604.00
2022-09-02T08:54:59.012Z,3584.00
2022-09-02T08:55:58.867Z,3564.00
2022-09-02T08:56:58.885Z,3580.00
2022-09-02T08:57:58.878Z,3532.00
2022-09-02T08:58:58.843Z,3540.00
2022-09-02T08:59:58.893Z,3520.00
2022-09-02T09:00:58.830Z,3508.00
2022-09-02T09:02:00.870Z,3496.00
2022-09-02T09:02:58.776Z,3448.00
2022-09-02T09:03:58.792Z,3424.00
2022-09-02T09:04:58.854Z,3404.00
2022-09-02T09:05:58.732Z,3380.00
2022-09-02T09:06:58.775Z,3384.00
2022-09-02T09:07:58.733Z,3416.00
2022-09-02T09:08:58.839Z,3408.00
2022-09-02T09:09:58.720Z,3392.00
2022-09-02T09:10:58.680Z,3356.00
2022-09-02T09:11:58.744Z,3296.00
2022-09-02T09:12:58.661Z,3236.00
2022-09-02T09:13:58.649Z,3204.00
2022-09-02T09:14:58.657Z,3188.00
2022-09-02T09:15:58.681Z,3180.00
2022-09-02T09:16:58.680Z,3164.00
2022-09-02T09:17:58.600Z,3208.00
2022-09-02T09:18:58.594Z,3124.00
2022-09-02T09:19:58.592Z,3228.00
2022-09-02T09:20:58.571Z,3260.00
2022-09-02T09:21:58.557Z,3288.00
2022-09-02T09:22:58.542Z,3380.00
2022-09-02T09:23:58.536Z,3420.00
2022-09-02T09:24:58.542Z,3516.00
2022-09-02T09:25:58.510Z,3564.00
2022-09-02T09:26:58.496Z,3580.00
2022-09-02T09:27:58.489Z,3664.00
2022-09-02T09:28:58.483Z,3720.00
2022-09-02T09:29:58.492Z,3764.00
2022-09-02T09:30:58.459Z,3796.00
2022-09-02T09:31:58.483Z,3832.00
2022-09-02T09:32:58.443Z,3868.00
2022-09-02T09:33:58.420Z,3908.00
2022-09-02T09:34:58.435Z,3940.00
2022-09-02T09:35:58.414Z,3932.00
2022-09-02T09:36:58.391Z,3952.00
2022-09-02T09:37:58.375Z,3976.00
2022-09-02T09:38:58.383Z,4000.00
2022-09-02T09:39:58.382Z,4028.00
2022-09-02T09:40:58.346Z,4036.00
2022-09-02T09:41:58.325Z,4096.00
2022-09-02T09:42:58.369Z,4144.00
2022-09-02T09:43:58.309Z,4188.00
2022-09-02T09:44:58.319Z,4184.00
2022-09-02T09:45:58.394Z,4272.00
2022-09-02T09:46:58.280Z,4308.00
2022-09-02T09:47:58.472Z,4328.00
2022-09-02T09:48:58.267Z,4420.00
2022-09-02T09:49:58.267Z,4516.00
2022-09-02T09:50:58.244Z,4580.00
2022-09-02T09:51:58.243Z,4608.00
2022-09-02T09:52:58.216Z,4648.00
2022-09-02T09:53:58.204Z,4676.00
2022-09-02T09:54:58.211Z,4704.00
2022-09-02T09:55:58.206Z,4712.00
2022-09-02T09:56:58.174Z,4724.00
2022-09-02T09:57:58.169Z,4744.00
2022-09-02T09:58:58.145Z,4756.00
2022-09-02T09:59:58.165Z,4760.00
2022-09-02T10:00:58.156Z,4784.00
2022-09-02T10:01:58.184Z,4796.00
2022-09-02T10:02:58.114Z,4816.00
2022-09-02T10:03:58.091Z,4824.00
2022-09-02T10:04:58.131Z,4824.00
2022-09-02T10:05:58.071Z,4832.00
2022-09-02T10:06:58.065Z,4832.00
2022-09-02T10:07:58.053Z,4844.00
2022-09-02T10:08:58.038Z,4852.00
2022-09-02T10:09:58.047Z,4856.00
2022-09-02T10:10:58.014Z,4852.00
2022-09-02T10:11:58.002Z,4868.00
2022-09-02T10:12:57.992Z,4868.00
2022-09-02T10:13:57.989Z,4876.00
2022-09-02T10:14:57.992Z,4892.00
2022-09-02T10:15:57.982Z,4896.00
2022-09-02T10:16:57.953Z,4892.00
2022-09-02T10:17:57.934Z,4900.00
2022-09-02T10:18:57.938Z,4904.00
2022-09-02T10:19:57.950Z,4908.00
2022-09-02T10:21:13.854Z,4908.00
2022-09-02T10:21:57.901Z,4912.00
2022-09-02T10:22:59.905Z,4916.00
2022-09-02T10:23:57.865Z,4916.00
2022-09-02T10:24:57.880Z,4924.00
2022-09-02T10:25:57.848Z,4916.00
2022-09-02T10:26:57.844Z,4924.00
2022-09-02T10:27:57.839Z,4932.00
2022-09-02T10:28:59.762Z,4936.00
2022-09-02T10:29:57.821Z,4940.00
2022-09-02T10:30:57.794Z,4952.00
2022-09-02T10:31:57.832Z,4944.00
2022-09-02T10:32:57.776Z,4940.00
2022-09-02T10:33:57.759Z,4936.00
2022-09-02T10:34:57.774Z,4944.00
2022-09-02T10:35:57.743Z,4932.00
2022-09-02T10:36:57.739Z,4936.00
2022-09-02T10:37:57.716Z,4928.00
2022-09-02T10:38:57.714Z,4932.00
2022-09-02T10:39:57.712Z,4952.00
2022-09-02T10:40:57.784Z,4952.00
2022-09-02T10:42:04.227Z,4952.00
2022-09-02T10:42:57.659Z,4956.00
2022-09-02T10:43:57.739Z,4964.00
2022-09-02T10:44:59.048Z,4984.00
2022-09-02T10:45:57.628Z,4976.00
2022-09-02T10:46:57.673Z,4956.00
2022-09-02T10:47:57.629Z,4928.00
2022-09-02T10:48:57.601Z,4928.00
2022-09-02T10:49:57.604Z,4940.00
2022-09-02T10:50:57.570Z,4956.00
2022-09-02T10:51:57.577Z,4988.00
2022-09-02T10:52:57.550Z,5008.00
2022-09-02T10:53:57.570Z,4976.00
2022-09-02T10:54:57.549Z,4928.00
2022-09-02T10:55:57.520Z,4952.00
2022-09-02T10:56:57.516Z,4952.00
2022-09-02T10:57:57.491Z,4952.00
2022-09-02T10:58:57.491Z,4992.00
2022-09-02T10:59:57.494Z,4980.00
2022-09-02T11:00:57.514Z,4984.00
2022-09-02T11:01:57.460Z,4988.00
2022-09-02T11:02:57.449Z,4964.00
2022-09-02T11:03:57.513Z,4952.00
2022-09-02T11:04:57.427Z,4956.00
2022-09-02T11:05:57.429Z,4960.00
2022-09-02T11:07:04.568Z,4976.00
2022-09-02T11:07:57.391Z,4964.00
2022-09-02T11:08:57.383Z,4964.00
2022-09-02T11:09:57.382Z,4988.00
2022-09-02T11:10:57.373Z,4996.00
2022-09-02T11:12:00.069Z,5064.00
2022-09-02T11:12:57.345Z,5108.00
2022-09-02T11:13:57.344Z,5176.00
2022-09-02T11:14:57.311Z,5272.00
2022-09-02T11:15:57.380Z,5144.00
2022-09-02T11:16:57.297Z,5076.00
2022-09-02T11:17:57.271Z,5024.00
2022-09-02T11:18:57.283Z,5016.00
2022-09-02T11:19:57.266Z,5040.00
2022-09-02T11:20:57.332Z,4336.00
2022-09-02T11:21:57.235Z,2256.00
2022-09-02T11:22:57.223Z,5080.00
2022-09-02T11:23:57.207Z,5092.00
2022-09-02T11:24:57.198Z,5020.00
2022-09-02T11:25:57.211Z,5000.00
2022-09-02T11:26:57.185Z,5000.00
2022-09-02T11:27:57.165Z,5052.00
2022-09-02T11:28:57.161Z,5080.00
2022-09-02T11:29:57.153Z,2340.00
2022-09-02T11:30:57.165Z,3708.00
2022-09-02T11:31:57.140Z,2180.00
2022-09-02T11:32:57.134Z,2268.00
2022-09-02T11:33:57.123Z,4072.00
2022-09-02T11:34:57.104Z,2664.00
2022-09-02T11:35:57.097Z,2840.00
2022-09-02T11:36:57.093Z,2892.00
2022-09-02T11:37:57.068Z,2932.00
2022-09-02T11:38:57.048Z,2896.00
2022-09-02T11:40:11.605Z,4700.00
2022-09-02T11:41:57.060Z,6512.00
2022-09-02T11:42:57.011Z,6616.00
2022-09-02T11:43:57.001Z,6772.00
2022-09-02T11:44:56.995Z,6736.00
2022-09-02T11:45:57.202Z,6276.00
2022-09-02T11:46:57.009Z,5952.00
2022-09-02T11:47:56.951Z,5772.00
2022-09-02T11:48:56.969Z,5588.00
2022-09-02T11:49:56.932Z,4008.00
2022-09-02T11:50:56.936Z,2732.00
2022-09-02T11:51:56.906Z,2624.00
2022-09-02T11:52:56.906Z,2524.00
2022-09-02T11:53:56.890Z,2696.00
2022-09-02T11:55:00.686Z,3596.00
2022-09-02T11:55:56.879Z,5568.00
2022-09-02T11:56:56.847Z,5068.00
2022-09-02T11:57:56.832Z,6080.00
2022-09-02T11:58:56.827Z,6432.00
2022-09-02T11:59:56.829Z,6708.00
2022-09-02T12:00:56.830Z,6600.00
2022-09-02T12:01:56.793Z,6348.00
2022-09-02T12:02:56.788Z,6204.00
2022-09-02T12:05:00.239Z,5672.00
2022-09-02T12:05:56.956Z,5388.00
2022-09-02T12:06:56.857Z,5208.00
2022-09-02T12:07:56.726Z,5172.00
2022-09-02T12:08:56.720Z,3856.00
2022-09-02T12:09:56.903Z,5276.00
2022-09-02T12:10:56.725Z,3396.00
2022-09-02T12:11:56.682Z,3788.00
2022-09-02T12:12:56.672Z,4108.00
2022-09-02T12:13:56.661Z,6496.00
2022-09-02T12:14:56.659Z,5848.00
2022-09-02T12:15:56.697Z,4476.00
2022-09-02T12:16:56.630Z,4264.00
2022-09-02T12:17:56.627Z,4376.00
2022-09-02T12:18:56.610Z,4496.00
2022-09-02T12:19:56.597Z,4772.00
2022-09-02T12:20:56.651Z,6448.00
2022-09-02T12:21:56.570Z,6300.00
2022-09-02T12:22:56.567Z,6544.00
2022-09-02T12:23:56.559Z,4984.00
2022-09-02T12:24:56.537Z,5292.00
2022-09-02T12:25:56.551Z,6996.00
2022-09-02T12:26:56.516Z,6812.00
2022-09-02T12:27:56.512Z,6648.00
2022-09-02T12:28:56.494Z,6784.00
2022-09-02T12:29:56.491Z,5804.00
2022-09-02T12:30:56.642Z,5608.00
2022-09-02T12:31:56.463Z,6136.00
2022-09-02T12:32:56.453Z,6612.00
2022-09-02T12:33:56.451Z,4388.00